createdAt,value
2019-05-28T00:00:57.942Z,5.70
2019-05-28T00:03:27.341Z,5.87
2019-05-28T00:05:56.645Z,6.05
2019-05-28T00:08:26.043Z,6.55
2019-05-28T00:10:55.425Z,5.80
2019-05-28T00:13:24.937Z,7.30
2019-05-28T00:15:54.197Z,6.22
2019-05-28T00:18:23.469Z,7.00
2019-05-28T00:20:52.906Z,7.33
2019-05-28T00:23:22.317Z,6.12
2019-05-28T00:25:51.601Z,5.95
2019-05-28T00:28:20.920Z,6.28
2019-05-28T00:30:50.365Z,6.20
2019-05-28T00:33:19.899Z,6.40
2019-05-28T00:35:49.473Z,6.17
2019-05-28T00:38:18.862Z,5.55
2019-05-28T00:40:48.258Z,6.75
2019-05-28T00:43:17.810Z,5.85
2019-05-28T00:45:47.396Z,5.65
2019-05-28T00:48:16.759Z,5.55
2019-05-28T00:50:46.030Z,4.90
2019-05-28T00:53:15.540Z,5.03
2019-05-28T00:55:45.950Z,4.85
2019-05-28T00:58:15.954Z,5.92
2019-05-28T01:00:47.838Z,5.72
2019-05-28T01:03:17.370Z,4.85
2019-05-28T01:05:46.722Z,6.30
2019-05-28T01:08:16.180Z,4.92
2019-05-28T01:10:45.926Z,5.58
2019-05-28T01:13:15.511Z,5.78
2019-05-28T01:15:45.285Z,5.75
2019-05-28T01:18:14.589Z,5.95
2019-05-28T01:20:44.126Z,5.80
2019-05-28T01:23:13.584Z,4.72
2019-05-28T01:25:42.926Z,4.80
2019-05-28T01:28:12.303Z,4.87
2019-05-28T01:30:54.798Z,5.33
2019-05-28T01:33:12.610Z,4.45
2019-05-28T01:35:41.900Z,5.12
2019-05-28T01:38:11.485Z,4.78
2019-05-28T01:40:40.926Z,5.08
2019-05-28T01:43:10.288Z,4.00
2019-05-28T01:45:39.617Z,5.37
2019-05-28T01:48:09.012Z,4.55
2019-05-28T01:50:38.378Z,4.15
2019-05-28T01:53:07.949Z,4.08
2019-05-28T01:55:37.325Z,4.35
2019-05-28T01:58:06.830Z,4.53
2019-05-28T02:00:36.139Z,6.05
2019-05-28T02:03:05.428Z,4.25
2019-05-28T02:05:34.563Z,5.03
2019-05-28T02:08:03.881Z,4.00
2019-05-28T02:10:33.015Z,4.83
2019-05-28T02:13:02.167Z,5.22
2019-05-28T02:15:31.296Z,5.10
2019-05-28T02:18:00.351Z,4.83
2019-05-28T02:20:29.534Z,4.65
2019-05-28T02:22:58.840Z,5.00
2019-05-28T02:25:28.645Z,4.83
2019-05-28T02:27:57.767Z,5.25
2019-05-28T02:30:26.823Z,5.60
2019-05-28T02:32:56.175Z,4.35
2019-05-28T02:35:25.449Z,4.65
2019-05-28T02:37:54.593Z,4.90
2019-05-28T02:40:23.995Z,4.40
2019-05-28T02:42:53.167Z,5.08
2019-05-28T02:45:22.927Z,5.03
2019-05-28T02:47:51.951Z,5.47
2019-05-28T02:50:41.091Z,5.78
2019-05-28T02:53:10.246Z,5.53
2019-05-28T02:55:41.166Z,5.45
2019-05-28T02:58:10.785Z,6.53
2019-05-28T03:00:40.387Z,6.22
2019-05-28T03:03:10.998Z,6.40
2019-05-28T03:05:43.290Z,7.62
2019-05-28T03:08:12.847Z,8.05
2019-05-28T03:13:13.079Z,7.87
2019-05-28T03:15:45.435Z,8.23
2019-05-28T03:18:16.525Z,8.63
2019-05-28T03:20:46.399Z,8.25
2019-05-28T03:23:16.483Z,9.13
2019-05-28T03:25:45.722Z,7.95
2019-05-28T03:28:14.954Z,9.45
2019-05-28T03:30:44.167Z,8.80
2019-05-28T03:33:13.615Z,10.03
2019-05-28T03:35:45.193Z,8.70
2019-05-28T03:38:15.494Z,8.35
2019-05-28T03:40:45.953Z,9.05
2019-05-28T03:43:34.227Z,9.15
2019-05-28T03:46:03.301Z,10.25
2019-05-28T03:48:32.419Z,10.00
2019-05-28T03:51:01.481Z,9.98
2019-05-28T03:53:30.666Z,9.58
2019-05-28T03:55:59.972Z,9.90
2019-05-28T03:58:28.999Z,10.82
2019-05-28T04:00:58.392Z,9.63
2019-05-28T04:03:46.595Z,10.80
2019-05-28T04:06:15.716Z,9.70
2019-05-28T04:08:44.986Z,11.03
2019-05-28T04:11:14.219Z,12.18
2019-05-28T04:13:43.339Z,12.98
2019-05-28T04:16:12.456Z,12.40
2019-05-28T04:18:41.615Z,12.33
2019-05-28T04:21:10.726Z,13.88
2019-05-28T04:23:41.747Z,13.50
2019-05-28T04:26:10.695Z,14.15
2019-05-28T04:28:40.002Z,13.58
2019-05-28T04:31:09.152Z,13.58
2019-05-28T04:33:38.277Z,14.50
2019-05-28T04:36:07.411Z,10.48
2019-05-28T04:38:36.408Z,8.78
2019-05-28T04:41:05.495Z,7.78
2019-05-28T04:43:34.559Z,6.85
2019-05-28T04:46:03.689Z,4.45
2019-05-28T04:48:32.721Z,4.67
2019-05-28T04:51:01.807Z,5.03
2019-05-28T04:53:30.915Z,4.55
2019-05-28T04:56:00.140Z,4.55
2019-05-28T04:58:29.298Z,5.08
2019-05-28T05:00:58.329Z,7.55
2019-05-28T05:03:27.445Z,7.10
2019-05-28T05:05:56.864Z,6.37
2019-05-28T05:08:26.261Z,5.97
2019-05-28T05:10:55.476Z,6.80
2019-05-28T05:13:24.792Z,8.20
2019-05-28T05:16:17.682Z,8.88
2019-05-28T05:19:12.369Z,7.42
2019-05-28T05:21:42.500Z,4.72
2019-05-28T05:24:14.747Z,3.80
2019-05-28T05:26:44.331Z,3.15
2019-05-28T05:29:13.637Z,3.27
2019-05-28T05:31:42.886Z,3.10
2019-05-28T05:34:12.050Z,3.58
2019-05-28T05:36:41.356Z,4.50
2019-05-28T05:39:29.715Z,4.45
2019-05-28T05:41:59.236Z,4.75
2019-05-28T05:44:28.479Z,4.58
2019-05-28T05:46:57.760Z,3.83
2019-05-28T05:49:27.051Z,3.30
2019-05-28T05:51:56.300Z,3.05
2019-05-28T05:54:25.311Z,2.15
2019-05-28T05:56:54.543Z,2.50
2019-05-28T05:59:23.682Z,2.60
2019-05-28T06:01:53.051Z,1.57
2019-05-28T06:04:22.272Z,1.65
2019-05-28T06:06:51.494Z,1.82
2019-05-28T06:09:20.862Z,1.80
2019-05-28T06:11:50.036Z,1.70
2019-05-28T06:14:19.245Z,1.98
2019-05-28T06:16:48.476Z,2.55
2019-05-28T06:19:17.575Z,2.12
2019-05-28T06:21:46.630Z,2.70
2019-05-28T06:24:15.795Z,2.95
2019-05-28T06:26:45.056Z,3.30
2019-05-28T06:29:14.222Z,3.85
2019-05-28T06:31:43.370Z,4.05
2019-05-28T06:34:12.740Z,4.92
2019-05-28T06:36:41.854Z,6.08
2019-05-28T06:39:11.263Z,5.70
2019-05-28T06:41:40.422Z,6.08
2019-05-28T06:44:09.513Z,5.40
2019-05-28T06:46:38.687Z,5.50
2019-05-28T06:49:27.037Z,7.03
2019-05-28T06:52:02.412Z,5.97
2019-05-28T06:54:31.647Z,6.10
2019-05-28T06:57:00.830Z,6.45
2019-05-28T06:59:30.047Z,5.97
2019-05-28T07:01:59.236Z,5.90
2019-05-28T07:04:32.886Z,6.05
2019-05-28T07:06:59.290Z,5.55
2019-05-28T07:09:28.471Z,4.53
2019-05-28T07:11:57.557Z,4.05
2019-05-28T07:14:26.651Z,4.40
2019-05-28T07:16:56.023Z,4.47
2019-05-28T07:19:25.379Z,4.08
2019-05-28T07:21:54.747Z,4.55
2019-05-28T07:24:24.059Z,4.55
2019-05-28T07:26:53.563Z,4.78
2019-05-28T07:29:22.707Z,4.83
2019-05-28T07:31:51.820Z,4.90
2019-05-28T07:34:30.161Z,4.95
2019-05-28T07:36:51.715Z,4.72
2019-05-28T07:39:40.217Z,5.40
2019-05-28T07:42:09.711Z,4.37
2019-05-28T07:44:38.826Z,3.30
2019-05-28T07:47:11.094Z,2.30
2019-05-28T07:49:38.988Z,2.50
2019-05-28T07:52:08.159Z,2.47
2019-05-28T07:54:39.350Z,2.30
2019-05-28T07:57:07.928Z,2.20
2019-05-28T07:59:36.936Z,2.62
2019-05-28T08:02:06.099Z,2.52
2019-05-28T08:04:46.700Z,2.75
2019-05-28T08:07:06.380Z,2.55
2019-05-28T08:09:35.796Z,2.77
2019-05-28T08:12:05.135Z,3.33
2019-05-28T08:14:34.238Z,2.98
2019-05-28T08:17:03.492Z,3.02
2019-05-28T08:19:32.562Z,3.27
2019-05-28T08:22:01.769Z,2.92
2019-05-28T08:24:30.961Z,3.05
2019-05-28T08:26:59.970Z,3.42
2019-05-28T08:29:29.203Z,2.77
2019-05-28T08:31:58.953Z,2.75
2019-05-28T08:34:28.137Z,3.42
2019-05-28T08:37:05.694Z,3.55
2019-05-28T08:39:28.096Z,3.37
2019-05-28T08:41:57.461Z,2.80
2019-05-28T08:44:26.876Z,2.98
2019-05-28T08:46:56.038Z,2.90
2019-05-28T08:49:25.298Z,3.22
2019-05-28T08:51:54.513Z,3.00
2019-05-28T08:54:23.651Z,3.47
2019-05-28T08:56:52.883Z,3.17
2019-05-28T08:59:22.258Z,3.05
2019-05-28T09:01:51.576Z,3.08
2019-05-28T09:04:20.884Z,3.37
2019-05-28T09:06:50.153Z,3.60
2019-05-28T09:09:19.232Z,3.27
2019-05-28T09:11:48.592Z,3.55
2019-05-28T09:14:17.728Z,2.85
2019-05-28T09:16:46.926Z,3.17
2019-05-28T09:19:16.014Z,3.22
2019-05-28T09:21:45.075Z,2.90
2019-05-28T09:24:14.202Z,2.50
2019-05-28T09:26:43.368Z,3.20
2019-05-28T09:29:12.790Z,2.40
2019-05-28T09:31:42.226Z,2.67
2019-05-28T09:34:11.471Z,2.37
2019-05-28T09:36:41.865Z,2.30
2019-05-28T09:39:11.152Z,2.10
2019-05-28T09:41:40.288Z,2.00
2019-05-28T09:44:09.384Z,2.80
2019-05-28T09:46:38.752Z,2.15
2019-05-28T09:49:07.990Z,3.02
2019-05-28T09:51:37.109Z,3.08
2019-05-28T09:54:06.369Z,2.42
2019-05-28T09:56:35.481Z,2.30
2019-05-28T09:59:04.957Z,2.33
2019-05-28T10:01:37.131Z,2.55
2019-05-28T10:04:05.891Z,2.42
2019-05-28T10:06:37.452Z,2.37
2019-05-28T10:09:07.337Z,2.20
2019-05-28T10:11:36.779Z,2.30
2019-05-28T10:14:06.017Z,3.42
2019-05-28T10:16:35.112Z,2.42
2019-05-28T10:19:04.532Z,2.15
2019-05-28T10:21:33.680Z,2.30
2019-05-28T10:24:02.888Z,2.47
2019-05-28T10:26:32.273Z,2.40
2019-05-28T10:29:01.475Z,2.35
2019-05-28T10:31:30.726Z,2.35
2019-05-28T10:34:00.031Z,2.15
2019-05-28T10:36:36.048Z,2.15
2019-05-28T10:39:00.063Z,2.52
2019-05-28T10:41:29.430Z,2.52
2019-05-28T10:43:58.607Z,2.77
2019-05-28T10:46:27.996Z,2.98
2019-05-28T10:48:57.186Z,2.70
2019-05-28T10:51:26.403Z,2.98
2019-05-28T10:53:55.738Z,2.98
2019-05-28T10:56:25.040Z,2.95
2019-05-28T10:59:13.255Z,3.05
2019-05-28T11:01:42.684Z,2.67
2019-05-28T11:04:11.877Z,3.12
2019-05-28T11:06:51.387Z,2.85
2019-05-28T11:09:12.479Z,2.80
2019-05-28T11:11:41.634Z,2.67
2019-05-28T11:14:10.881Z,2.98
2019-05-28T11:16:40.396Z,3.20
2019-05-28T11:19:09.555Z,3.20
2019-05-28T11:21:38.713Z,3.15
2019-05-28T11:24:08.219Z,3.08
2019-05-28T11:26:42.939Z,2.65
2019-05-28T11:29:12.037Z,2.92
2019-05-28T11:32:00.387Z,3.30
2019-05-28T11:34:29.661Z,2.95
2019-05-28T11:37:08.913Z,2.92
2019-05-28T11:39:49.065Z,3.22
2019-05-28T11:42:18.288Z,3.02
2019-05-28T11:44:47.603Z,3.00
2019-05-28T11:47:16.766Z,3.08
2019-05-28T11:49:46.340Z,3.08
2019-05-28T11:52:15.635Z,3.35
2019-05-28T11:54:45.591Z,2.50
2019-05-28T11:57:14.895Z,2.90
2019-05-28T11:59:44.092Z,3.17
2019-05-28T12:02:13.342Z,2.92
2019-05-28T12:04:42.398Z,2.83
2019-05-28T12:07:25.053Z,2.75
2019-05-28T12:09:42.477Z,3.08
2019-05-28T12:12:11.686Z,2.17
2019-05-28T12:14:41.110Z,2.40
2019-05-28T12:17:10.358Z,2.37
2019-05-28T12:19:39.437Z,2.25
2019-05-28T12:22:08.712Z,1.87
2019-05-28T12:24:38.074Z,1.85
2019-05-28T12:27:07.518Z,2.30
2019-05-28T12:29:51.051Z,1.60
2019-05-28T12:32:08.678Z,2.00
2019-05-28T12:34:38.351Z,1.52
2019-05-28T12:37:07.654Z,1.85
2019-05-28T12:39:36.979Z,1.60
2019-05-28T12:42:07.310Z,2.20
2019-05-28T12:44:42.349Z,2.20
2019-05-28T12:47:07.952Z,2.15
2019-05-28T12:49:37.141Z,2.27
2019-05-28T12:52:08.225Z,2.25
2019-05-28T12:54:37.579Z,2.42
2019-05-28T12:57:06.787Z,1.87
2019-05-28T12:59:36.148Z,2.37
2019-05-28T13:02:05.402Z,2.65
2019-05-28T13:04:34.586Z,2.60
2019-05-28T13:07:03.796Z,2.15
2019-05-28T13:09:33.381Z,2.37
2019-05-28T13:12:02.579Z,2.25
2019-05-28T13:14:31.868Z,2.02
2019-05-28T13:17:00.974Z,2.75
2019-05-28T13:19:30.180Z,3.70
2019-05-28T13:21:59.388Z,3.67
2019-05-28T13:24:28.540Z,2.67
2019-05-28T13:26:57.738Z,2.25
2019-05-28T13:29:27.167Z,2.40
2019-05-28T13:31:56.568Z,2.33
2019-05-28T13:34:25.731Z,2.33
2019-05-28T13:36:55.010Z,2.15
2019-05-28T13:39:24.352Z,2.47
2019-05-28T13:41:53.532Z,2.72
2019-05-28T13:44:22.724Z,2.58
2019-05-28T13:46:52.118Z,2.60
2019-05-28T13:49:21.348Z,2.52
2019-05-28T13:51:52.823Z,2.75
2019-05-28T13:54:21.713Z,2.52
2019-05-28T13:56:50.828Z,2.45
2019-05-28T13:59:20.060Z,2.20
2019-05-28T14:01:49.347Z,2.50
2019-05-28T14:04:18.471Z,2.22
2019-05-28T14:06:47.666Z,2.52
2019-05-28T14:09:16.822Z,2.30
2019-05-28T14:11:46.223Z,2.22
2019-05-28T14:14:15.363Z,2.12
2019-05-28T14:16:44.561Z,1.80
2019-05-28T14:19:13.837Z,2.00
2019-05-28T14:21:43.034Z,1.92
2019-05-28T14:24:12.237Z,1.90
2019-05-28T14:26:41.375Z,1.40
2019-05-28T14:29:10.559Z,1.45
2019-05-28T14:31:40.350Z,1.42
2019-05-28T14:34:09.601Z,1.37
2019-05-28T14:36:41.182Z,1.45
2019-05-28T14:39:10.284Z,1.50
2019-05-28T14:41:39.408Z,1.30
2019-05-28T14:44:08.645Z,1.30
2019-05-28T14:46:37.688Z,1.07
2019-05-28T14:49:09.821Z,1.57
2019-05-28T14:51:38.937Z,1.20
2019-05-28T14:54:08.126Z,1.52
2019-05-28T14:56:37.429Z,1.45
2019-05-28T14:59:06.564Z,1.62
2019-05-28T15:01:35.684Z,1.75
2019-05-28T15:04:04.835Z,1.30
2019-05-28T15:06:34.060Z,1.67
2019-05-28T15:09:19.539Z,2.10
2019-05-28T15:11:34.151Z,1.30
2019-05-28T15:14:03.257Z,1.30
2019-05-28T15:16:32.436Z,1.42
2019-05-28T15:19:01.663Z,1.37
2019-05-28T15:21:31.183Z,1.10
2019-05-28T15:24:00.511Z,1.50
2019-05-28T15:27:04.371Z,1.37
2019-05-28T15:29:33.950Z,1.30
2019-05-28T15:32:03.193Z,1.10
2019-05-28T15:34:35.221Z,1.10
2019-05-28T15:37:04.479Z,2.77
2019-05-28T15:39:39.522Z,1.07
2019-05-28T15:42:04.844Z,0.68
2019-05-28T15:44:34.264Z,0.70
2019-05-28T15:47:03.425Z,1.00
2019-05-28T15:49:33.078Z,0.70
2019-05-28T15:52:07.883Z,0.93
2019-05-28T15:54:33.263Z,0.80
2019-05-28T15:57:02.531Z,0.90
2019-05-28T15:59:31.805Z,0.90
2019-05-28T16:02:01.157Z,0.82
2019-05-28T16:04:31.158Z,0.70
2019-05-28T16:07:19.381Z,1.12
2019-05-28T16:09:56.124Z,0.90
2019-05-28T16:12:19.340Z,0.75
2019-05-28T16:14:48.514Z,1.20
2019-05-28T16:17:17.761Z,0.80
2019-05-28T16:19:47.054Z,1.00
2019-05-28T16:22:16.454Z,0.88
2019-05-28T16:24:45.596Z,0.78
2019-05-28T16:27:14.856Z,0.90
2019-05-28T16:29:44.070Z,1.00
2019-05-28T16:32:13.240Z,0.88
2019-05-28T16:34:42.355Z,0.85
2019-05-28T16:37:11.497Z,1.00
2019-05-28T16:39:40.651Z,0.70
2019-05-28T16:42:09.854Z,0.95
2019-05-28T16:44:39.165Z,0.98
2019-05-28T16:47:17.293Z,0.80
2019-05-28T16:49:39.100Z,0.82
2019-05-28T16:52:09.301Z,0.90
2019-05-28T16:54:38.572Z,0.93
2019-05-28T16:57:07.688Z,1.00
2019-05-28T16:59:37.115Z,1.00
2019-05-28T17:02:06.255Z,1.30
2019-05-28T17:04:35.592Z,1.35
2019-05-28T17:07:04.951Z,1.27
2019-05-28T17:09:34.353Z,0.90
2019-05-28T17:12:03.959Z,0.80
2019-05-28T17:14:33.402Z,0.72
2019-05-28T17:17:03.220Z,0.90
2019-05-28T17:19:32.791Z,0.98
2019-05-28T17:22:01.833Z,0.80
2019-05-28T17:24:30.908Z,0.70
2019-05-28T17:27:00.059Z,0.80
2019-05-28T17:29:29.320Z,0.90
2019-05-28T17:31:58.476Z,1.27
2019-05-28T17:34:27.718Z,0.68
2019-05-28T17:36:56.975Z,0.70
2019-05-28T17:39:26.054Z,0.78
2019-05-28T17:41:56.334Z,1.00
2019-05-28T17:44:25.467Z,0.75
2019-05-28T17:46:54.666Z,0.80
2019-05-28T17:49:23.813Z,0.98
2019-05-28T17:51:53.014Z,0.60
2019-05-28T17:54:22.237Z,0.80
2019-05-28T17:56:51.318Z,0.80
2019-05-28T17:59:20.427Z,0.85
2019-05-28T18:01:49.620Z,1.02
2019-05-28T18:04:18.752Z,0.98
2019-05-28T18:06:47.837Z,0.68
2019-05-28T18:09:17.058Z,0.80
2019-05-28T18:11:46.201Z,0.90
2019-05-28T18:14:15.330Z,0.78
2019-05-28T18:16:44.850Z,1.15
2019-05-28T18:19:14.100Z,0.80
2019-05-28T18:21:43.287Z,0.90
2019-05-28T18:24:12.579Z,0.80
2019-05-28T18:26:41.603Z,0.93
2019-05-28T18:29:10.712Z,0.88
2019-05-28T18:31:39.926Z,0.90
2019-05-28T18:34:09.044Z,0.80
2019-05-28T18:36:38.267Z,0.60
2019-05-28T18:39:08.197Z,0.80
2019-05-28T18:41:37.534Z,0.75
2019-05-28T18:44:06.749Z,0.68
2019-05-28T18:46:36.014Z,0.70
2019-05-28T18:49:05.526Z,1.00
2019-05-28T18:51:38.564Z,0.50
2019-05-28T18:54:05.733Z,1.10
2019-05-28T18:56:34.854Z,0.72
2019-05-28T18:59:04.120Z,0.62
2019-05-28T19:01:33.520Z,1.17
2019-05-28T19:04:02.890Z,0.37
2019-05-28T19:06:32.202Z,0.60
2019-05-28T19:09:01.336Z,1.37
2019-05-28T19:11:37.930Z,0.68
2019-05-28T19:14:01.564Z,1.05
2019-05-28T19:16:30.895Z,0.95
2019-05-28T19:19:00.068Z,0.65
2019-05-28T19:21:29.295Z,0.95
2019-05-28T19:23:58.639Z,0.60
2019-05-28T19:26:27.827Z,1.55
2019-05-28T19:28:56.959Z,0.93
2019-05-28T19:31:26.136Z,0.87
2019-05-28T19:33:55.829Z,0.90
2019-05-28T19:36:25.308Z,0.70
2019-05-28T19:38:56.421Z,0.80
2019-05-28T19:41:25.774Z,0.62
2019-05-28T19:43:54.992Z,0.60
2019-05-28T19:46:24.213Z,0.70
2019-05-28T19:48:53.538Z,0.50
2019-05-28T19:51:23.183Z,0.75
2019-05-28T19:53:52.299Z,0.70
2019-05-28T19:56:21.692Z,0.50
2019-05-28T19:58:51.014Z,0.57
2019-05-28T20:01:20.122Z,0.75
2019-05-28T20:03:49.400Z,0.78
2019-05-28T20:06:18.742Z,0.95
2019-05-28T20:08:47.946Z,0.70
2019-05-28T20:11:17.157Z,0.80
2019-05-28T20:13:49.034Z,1.00
2019-05-28T20:16:18.167Z,0.82
2019-05-28T20:18:47.447Z,0.70
2019-05-28T20:21:16.626Z,0.80
2019-05-28T20:23:45.853Z,0.90
2019-05-28T20:26:15.497Z,1.07
2019-05-28T20:28:44.655Z,1.00
2019-05-28T20:31:13.955Z,1.00
2019-05-28T20:34:03.823Z,0.82
2019-05-28T20:36:33.173Z,0.90
2019-05-28T20:39:03.612Z,1.35
2019-05-28T20:41:32.910Z,1.20
2019-05-28T20:44:02.179Z,1.10
2019-05-28T20:46:31.567Z,1.20
2019-05-28T20:49:00.797Z,1.10
2019-05-28T20:51:29.867Z,0.98
2019-05-28T20:53:59.039Z,1.20
2019-05-28T20:56:28.135Z,1.30
2019-05-28T20:59:00.058Z,1.10
2019-05-28T21:01:28.270Z,1.10
2019-05-28T21:03:58.256Z,1.00
2019-05-28T21:06:27.749Z,1.25
2019-05-28T21:08:58.227Z,0.90
2019-05-28T21:11:28.564Z,1.05
2019-05-28T21:13:58.834Z,1.92
2019-05-28T21:16:28.113Z,0.98
2019-05-28T21:18:57.360Z,1.27
2019-05-28T21:21:26.627Z,1.47
2019-05-28T21:23:55.939Z,1.60
2019-05-28T21:26:25.099Z,1.37
2019-05-28T21:28:54.311Z,1.22
2019-05-28T21:31:23.429Z,1.20
2019-05-28T21:33:52.870Z,1.40
2019-05-28T21:36:22.568Z,1.35
2019-05-28T21:38:51.660Z,1.20
2019-05-28T21:41:20.791Z,1.55
2019-05-28T21:43:50.140Z,1.42
2019-05-28T21:46:19.229Z,1.42
2019-05-28T21:48:48.475Z,1.50
2019-05-28T21:51:17.811Z,1.20
2019-05-28T21:53:47.037Z,1.67
2019-05-28T21:56:16.206Z,1.30
2019-05-28T21:58:45.391Z,1.82
2019-05-28T22:01:17.977Z,1.87
2019-05-28T22:03:47.090Z,2.15
2019-05-28T22:06:16.314Z,1.52
2019-05-28T22:08:45.479Z,1.57
2019-05-28T22:11:14.748Z,1.60
2019-05-28T22:13:43.834Z,2.02
2019-05-28T22:16:12.959Z,1.85
2019-05-28T22:18:42.056Z,1.60
2019-05-28T22:21:11.133Z,2.10
2019-05-28T22:23:40.361Z,1.77
2019-05-28T22:26:09.487Z,1.80
2019-05-28T22:28:38.759Z,1.90
2019-05-28T22:31:08.186Z,2.00
2019-05-28T22:33:37.291Z,2.25
2019-05-28T22:36:07.543Z,1.93
2019-05-28T22:38:36.811Z,1.62
2019-05-28T22:41:05.902Z,2.10
2019-05-28T22:43:35.026Z,2.42
2019-05-28T22:46:05.202Z,2.13
2019-05-28T22:48:34.319Z,2.72
2019-05-28T22:51:03.652Z,2.60
2019-05-28T22:53:32.844Z,2.50
2019-05-28T22:56:04.044Z,2.47
2019-05-28T22:58:33.074Z,2.30
2019-05-28T23:01:02.577Z,2.15
2019-05-28T23:03:31.764Z,2.43
2019-05-28T23:06:01.130Z,2.52
2019-05-28T23:08:30.256Z,2.50
2019-05-28T23:10:59.503Z,2.08
2019-05-28T23:13:28.590Z,2.27
2019-05-28T23:15:57.694Z,2.33
2019-05-28T23:18:26.892Z,2.10
2019-05-28T23:20:55.983Z,2.10
2019-05-28T23:23:25.144Z,2.10
2019-05-28T23:25:54.375Z,2.02
2019-05-28T23:28:23.775Z,2.00
2019-05-28T23:30:52.776Z,2.02
2019-05-28T23:33:21.984Z,1.80
2019-05-28T23:35:51.028Z,2.27
2019-05-28T23:38:20.162Z,1.75
2019-05-28T23:40:49.257Z,2.20
2019-05-28T23:43:18.601Z,2.08
2019-05-28T23:45:47.741Z,2.07
2019-05-28T23:48:18.497Z,2.00
2019-05-28T23:50:47.667Z,2.10
2019-05-28T23:53:17.922Z,2.20
2019-05-28T23:55:47.246Z,2.13
2019-05-28T23:58:16.338Z,1.97
